Time;durP1;ratioP1;P1;durP2;ratioP2;P2;SDS_P1;SDS_P2;PMS_P1;PMS_P2;Temp;Humidity;BMP_temperature;BMP_pressure;BME280_temperature;BME280_humidity;BME280_pressure;Samples;Min_cycle;Max_cycle;Signal;HPM_P1;HPM_P2
2023/01/23 00:01:30;;;;;;;15.95;9.60;;;;;;;1.42;100.00;101907.44;5067282;28;20651;-82
2023/01/23 00:03:57;;;;;;;16.27;10.55;;;;;;;1.22;100.00;101896.72;5067432;28;20056;-81
2023/01/23 00:06:25;;;;;;;17.30;10.68;;;;;;;0.69;100.00;101783.75;5072350;28;20060;-83
2023/01/23 00:08:52;;;;;;;17.90;10.68;;;;;;;0.85;100.00;101827.47;5074236;28;20051;-81
2023/01/23 00:11:22;;;;;;;17.58;10.27;;;;;;;0.50;100.00;101761.72;5074017;28;20049;-82
2023/01/23 00:13:48;;;;;;;16.45;10.65;;;;;;;1.34;100.00;101902.13;5071620;28;20392;-81
2023/01/23 00:16:18;;;;;;;15.15;10.07;;;;;;;1.31;100.00;101916.84;5066975;28;20055;-80
2023/01/23 00:18:45;;;;;;;17.40;10.70;;;;;;;0.69;100.00;101817.66;5082826;28;20118;-80
2023/01/23 00:21:15;;;;;;;16.70;10.60;;;;;;;0.82;100.00;101831.75;5067194;28;20052;-81
2023/01/23 00:23:46;;;;;;;16.23;10.50;;;;;;;0.83;100.00;101815.25;5077660;28;20066;-80
2023/01/23 00:26:16;;;;;;;17.63;10.73;;;;;;;1.07;100.00;101857.38;5087131;28;20473;-81
2023/01/23 00:28:43;;;;;;;16.35;9.98;;;;;;;1.42;100.00;101918.75;5070438;28;20054;-82
2023/01/23 00:31:14;;;;;;;17.63;10.43;;;;;;;1.30;100.00;101896.81;5068837;28;20051;-82
2023/01/23 00:33:42;;;;;;;15.70;10.23;;;;;;;0.46;100.00;101759.94;5077187;28;20052;-81
2023/01/23 00:36:09;;;;;;;16.25;10.00;;;;;;;1.36;100.00;101903.03;5048225;28;20071;-84
2023/01/23 00:38:36;;;;;;;17.48;10.02;;;;;;;0.69;100.00;101787.25;5076476;28;20040;-82
2023/01/23 00:41:03;;;;;;;16.80;10.40;;;;;;;1.14;100.00;101871.34;5055827;28;20063;-82
2023/01/23 00:43:31;;;;;;;14.80;9.35;;;;;;;1.43;100.00;101924.84;5066752;28;20045;-83
2023/01/23 00:45:58;;;;;;;17.90;10.95;;;;;;;1.47;100.00;101917.97;5072575;28;20467;-81
2023/01/23 00:48:25;;;;;;;16.75;9.57;;;;;;;1.42;100.00;101923.09;5074706;28;20051;-81
2023/01/23 00:50:51;;;;;;;14.23;9.00;;;;;;;1.47;100.00;101916.22;5074773;28;20056;-81
2023/01/23 00:53:18;;;;;;;16.83;9.75;;;;;;;0.88;100.00;101830.13;5066872;28;20080;-82
2023/01/23 00:55:45;;;;;;;14.90;10.05;;;;;;;1.46;100.00;101929.25;5082019;28;20139;-81
2023/01/23 00:58:11;;;;;;;15.63;9.98;;;;;;;1.44;100.00;101934.44;5072375;28;20599;-82
2023/01/23 01:00:38;;;;;;;16.13;9.95;;;;;;;1.27;100.00;101886.34;5072899;28;20062;-82
2023/01/23 01:03:05;;;;;;;16.23;9.70;;;;;;;1.14;100.00;101869.63;5047455;28;20048;-81
2023/01/23 01:05:32;;;;;;;15.27;9.45;;;;;;;1.23;100.00;101876.75;5072668;28;20560;-82
2023/01/23 01:07:59;;;;;;;14.52;9.27;;;;;;;1.13;100.00;101873.09;5076058;28;20056;-81
2023/01/23 01:10:28;;;;;;;13.73;8.43;;;;;;;0.98;100.00;101858.09;5076316;28;20052;-81
2023/01/23 01:12:56;;;;;;;15.40;9.48;;;;;;;0.54;100.00;101779.19;5081772;28;20143;-83
2023/01/23 01:15:26;;;;;;;15.02;9.57;;;;;;;0.98;100.00;101870.25;5062038;28;20049;-81
2023/01/23 01:17:53;;;;;;;14.20;9.27;;;;;;;1.23;100.00;101915.88;5077103;28;20051;-82
2023/01/23 01:20:24;;;;;;;15.52;9.95;;;;;;;1.07;100.00;101887.78;5072424;28;20075;-82
2023/01/23 01:22:52;;;;;;;17.60;9.73;;;;;;;1.15;100.00;101926.19;5058586;28;20405;-82
2023/01/23 01:25:19;;;;;;;17.05;10.27;;;;;;;1.11;100.00;101926.97;5067681;28;20044;-81
2023/01/23 01:27:46;;;;;;;15.70;9.80;;;;;;;0.76;100.00;101876.88;5076006;28;20055;-81
2023/01/23 01:30:14;;;;;;;16.52;9.98;;;;;;;0.82;100.00;101883.91;5077325;28;20051;-82
2023/01/23 01:32:41;;;;;;;18.77;9.90;;;;;;;0.78;100.00;101884.72;5074804;28;20058;-81
2023/01/23 01:35:08;;;;;;;17.70;9.55;;;;;;;0.15;100.00;101787.22;5087010;28;20115;-81
2023/01/23 01:37:36;;;;;;;16.27;9.98;;;;;;;0.79;100.00;101910.78;5096572;28;20055;-83
2023/01/23 01:40:04;;;;;;;16.70;10.52;;;;;;;0.63;100.00;101896.63;5076704;28;20056;-81
2023/01/23 01:42:38;;;;;;;16.60;9.77;;;;;;;0.60;100.00;101904.41;5062479;28;20052;-82
2023/01/23 01:45:05;;;;;;;15.80;10.00;;;;;;;0.81;100.00;101922.13;5071173;28;20045;-81
2023/01/23 01:47:31;;;;;;;15.90;9.40;;;;;;;0.71;100.00;101920.22;5061813;28;20060;-82
2023/01/23 01:50:03;;;;;;;17.30;10.10;;;;;;;0.38;100.00;101865.78;5071001;28;20044;-80
2023/01/23 01:52:30;;;;;;;18.00;10.07;;;;;;;0.43;100.00;101886.72;5067163;28;20481;-81
2023/01/23 01:55:00;;;;;;;17.02;9.77;;;;;;;0.76;100.00;101931.63;5062435;28;20709;-82
2023/01/23 01:57:47;;;;;;;19.08;10.70;;;;;;;0.71;100.00;101933.25;5065035;28;20412;-81
2023/01/23 02:00:17;;;;;;;16.77;9.90;;;;;;;0.29;100.00;101858.69;5055733;28;20064;-82
2023/01/23 02:02:59;;;;;;;16.77;9.88;;;;;;;0.85;100.00;101960.47;5069670;28;20122;-82
2023/01/23 02:05:34;;;;;;;19.13;10.93;;;;;;;0.81;100.00;101961.25;5058391;28;20056;-83
2023/01/23 02:08:22;;;;;;;17.35;10.40;;;;;;;0.78;100.00;101960.34;5066046;28;20052;-80
2023/01/23 02:10:49;;;;;;;20.38;11.40;;;;;;;0.72;100.00;101948.06;5068725;28;20057;-80
2023/01/23 02:13:31;;;;;;;18.02;10.52;;;;;;;0.47;100.00;101927.63;5063451;28;20052;-80
2023/01/23 02:16:00;;;;;;;17.95;10.77;;;;;;;0.55;100.00;101946.88;5072062;28;20044;-80
2023/01/23 02:18:29;;;;;;;20.73;11.65;;;;;;;0.57;100.00;101951.28;5080608;28;20048;-81
2023/01/23 02:21:00;;;;;;;21.73;12.00;;;;;;;0.49;100.00;101952.84;5064466;28;20052;-81
2023/01/23 02:23:39;;;;;;;;;;;;;;;0.64;100.00;101957.44;5070438;28;20055;-80
2023/01/23 02:26:19;;;;;;;20.50;10.98;;;;;;;0.45;100.00;101926.72;5066067;28;20092;-81
2023/01/23 02:28:48;;;;;;;19.33;11.48;;;;;;;0.38;100.00;101898.75;5073425;28;20425;-81
2023/01/23 02:31:15;;;;;;;22.33;10.88;;;;;;;0.72;100.00;101953.28;5067849;28;20045;-81
2023/01/23 02:33:45;;;;;;;20.58;11.85;;;;;;;0.75;100.00;101944.63;5070783;28;20088;-80
2023/01/23 02:36:12;;;;;;;20.75;11.82;;;;;;;0.71;100.00;101925.44;5073248;28;20044;-80
2023/01/23 02:38:49;;;;;;;17.90;10.77;;;;;;;0.87;100.00;101956.16;5072867;28;20044;-80
2023/01/23 02:41:23;;;;;;;20.60;11.57;;;;;;;0.62;100.00;101912.25;5074337;28;20055;-79
2023/01/23 02:43:51;;;;;;;21.65;12.23;;;;;;;0.53;100.00;101912.06;5055963;28;20040;-81
2023/01/23 02:46:19;;;;;;;19.15;10.90;;;;;;;0.77;100.00;101964.69;5072967;28;20059;-83
2023/01/23 02:48:47;;;;;;;20.40;12.43;;;;;;;0.75;100.00;101968.09;5065023;28;20057;-81
2023/01/23 02:51:15;;;;;;;20.63;11.52;;;;;;;0.43;100.00;101926.69;5076753;28;20052;-80
2023/01/23 02:53:44;;;;;;;21.50;12.07;;;;;;;-0.03;100.00;101845.06;5072029;28;20063;-80
2023/01/23 02:56:10;;;;;;;19.33;11.70;;;;;;;0.70;100.00;101970.63;5066493;28;20063;-80
2023/01/23 03:01:23;;;;;;;22.65;12.50;;;;;;;0.43;100.00;101920.59;5076495;28;20052;-81
2023/01/23 03:03:52;;;;;;;21.85;12.23;;;;;;;0.68;100.00;101973.19;5072603;28;20049;-82
2023/01/23 03:06:19;;;;;;;21.52;12.43;;;;;;;0.60;100.00;101955.66;5071145;28;20135;-83
2023/01/23 03:08:46;;;;;;;20.85;12.30;;;;;;;0.85;100.00;101973.50;5077934;28;20060;-82
2023/01/23 03:11:15;;;;;;;22.23;12.18;;;;;;;0.83;100.00;101966.50;5080265;28;20133;-80
2023/01/23 03:13:43;;;;;;;22.55;12.57;;;;;;;0.96;100.00;101997.16;5076692;28;20053;-79
2023/01/23 03:16:10;;;;;;;22.00;12.57;;;;;;;0.76;100.00;101939.44;5081264;28;20539;-80
2023/01/23 03:18:37;;;;;;;21.73;12.50;;;;;;;0.51;100.00;101903.34;5090629;28;20109;-80
2023/01/23 03:21:19;;;;;;;22.02;12.15;;;;;;;0.90;100.00;101978.81;5083496;28;20114;-81
2023/01/23 03:23:47;;;;;;;22.50;12.63;;;;;;;0.67;100.00;101931.44;5096791;28;20054;-80
2023/01/23 03:26:14;;;;;;;21.60;12.27;;;;;;;1.04;100.00;101983.41;5089531;28;20055;-81
2023/01/23 03:31:25;;;;;;;21.08;11.75;;;;;;;0.65;100.00;101920.09;5077229;28;20469;-81
2023/01/23 03:33:52;;;;;;;21.15;12.05;;;;;;;0.12;100.00;101828.84;5076417;28;20082;-82
2023/01/23 03:36:19;;;;;;;20.08;11.48;;;;;;;1.09;100.00;101985.22;5075887;28;20048;-82
2023/01/23 03:41:30;;;;;;;19.60;11.07;;;;;;;0.53;100.00;101883.41;5076064;28;20049;-80
2023/01/23 03:43:57;;;;;;;18.77;11.25;;;;;;;0.75;100.00;101932.47;5075785;28;20045;-79
2023/01/23 03:46:24;;;;;;;18.92;11.35;;;;;;;0.43;100.00;101889.31;5069604;28;20052;-81
2023/01/23 03:48:50;;;;;;;19.83;11.43;;;;;;;1.10;100.00;102003.50;5076160;28;20059;-82
2023/01/23 03:51:17;;;;;;;20.02;11.43;;;;;;;0.93;100.00;101952.78;5077219;28;20058;-83
2023/01/23 03:53:43;;;;;;;18.95;11.52;;;;;;;0.77;100.00;101915.13;5074192;28;20115;-82
2023/01/23 03:56:10;;;;;;;19.13;11.32;;;;;;;1.03;100.00;101970.34;5054711;28;20049;-82
2023/01/23 03:58:36;;;;;;;19.30;11.30;;;;;;;1.12;100.00;102001.78;5077294;28;20064;-83
2023/01/23 04:01:08;;;;;;;20.48;11.52;;;;;;;1.05;100.00;101971.25;5072975;28;20040;-81
2023/01/23 04:03:35;;;;;;;19.60;11.52;;;;;;;1.22;100.00;101989.78;5076234;28;20053;-81
2023/01/23 04:06:01;;;;;;;19.58;11.07;;;;;;;0.72;100.00;101902.84;5072725;28;20048;-81
2023/01/23 04:08:28;;;;;;;18.38;11.20;;;;;;;0.95;100.00;101943.22;5076002;28;20508;-81
2023/01/23 04:11:05;;;;;;;18.35;11.68;;;;;;;0.91;100.00;101928.41;5069957;28;20063;-80
2023/01/23 04:13:31;;;;;;;19.67;10.98;;;;;;;1.13;100.00;101980.06;5079422;28;20559;-82
2023/01/23 04:15:59;;;;;;;17.02;10.27;;;;;;;1.28;100.00;101987.25;5081092;28;20052;-82
2023/01/23 04:18:27;;;;;;;17.25;10.40;;;;;;;1.25;100.00;102000.28;5084934;28;20062;-81
2023/01/23 04:20:54;;;;;;;17.08;10.40;;;;;;;1.24;100.00;101995.91;5068150;28;20049;-81
2023/01/23 04:23:22;;;;;;;18.70;10.98;;;;;;;1.23;100.00;101994.16;5075499;28;20051;-81
2023/01/23 04:25:49;;;;;;;16.63;10.73;;;;;;;1.08;100.00;101962.59;5075031;28;20056;-80
2023/01/23 04:28:17;;;;;;;15.57;9.38;;;;;;;1.05;100.00;101956.47;5075430;28;20055;-80
2023/01/23 04:30:44;;;;;;;17.08;9.73;;;;;;;0.99;100.00;101937.22;5076343;28;20044;-83
2023/01/23 04:33:11;;;;;;;18.17;10.80;;;;;;;1.07;100.00;101951.28;5081227;28;20041;-82
2023/01/23 04:35:38;;;;;;;16.27;10.38;;;;;;;0.97;100.00;101931.09;5080668;28;20052;-81
2023/01/23 04:38:04;;;;;;;15.75;9.75;;;;;;;0.67;100.00;101881.91;5081651;28;20065;-80
2023/01/23 04:40:31;;;;;;;17.27;9.82;;;;;;;1.02;100.00;101937.28;5071021;28;20044;-79
2023/01/23 04:42:57;;;;;;;15.27;9.27;;;;;;;1.22;100.00;101985.44;5066710;28;20052;-81
2023/01/23 04:45:24;;;;;;;16.08;10.32;;;;;;;1.21;100.00;101983.69;5083286;28;20428;-80
2023/01/23 04:47:50;;;;;;;18.50;10.18;;;;;;;1.10;100.00;101967.00;5056965;28;20048;-82
2023/01/23 04:50:17;;;;;;;14.45;9.25;;;;;;;0.54;100.00;101866.91;5067325;28;20054;-81
2023/01/23 04:52:44;;;;;;;17.05;9.85;;;;;;;1.08;100.00;101955.66;5074154;28;20151;-80
2023/01/23 04:55:11;;;;;;;14.98;9.27;;;;;;;1.31;100.00;101988.19;5055706;28;20083;-81
2023/01/23 04:57:37;;;;;;;15.88;9.40;;;;;;;1.07;100.00;101929.53;5072161;28;20159;-80
2023/01/23 05:00:05;;;;;;;16.33;9.20;;;;;;;1.03;100.00;101926.88;5059500;28;20050;-79
2023/01/23 05:02:31;;;;;;;16.02;9.43;;;;;;;1.38;100.00;101981.34;5068859;28;20055;-79
2023/01/23 05:04:58;;;;;;;14.70;9.00;;;;;;;1.12;100.00;101943.50;5074727;28;20055;-81
2023/01/23 05:07:25;;;;;;;14.82;8.75;;;;;;;1.36;100.00;101991.78;5075781;28;20717;-82
2023/01/23 05:09:51;;;;;;;15.73;9.18;;;;;;;1.26;100.00;101981.16;5075592;28;20044;-80
2023/01/23 05:12:18;;;;;;;13.70;9.18;;;;;;;0.62;100.00;101873.16;5069678;28;20057;-79
2023/01/23 05:14:44;;;;;;;16.17;8.68;;;;;;;1.04;100.00;101936.44;5077466;28;20525;-79
2023/01/23 05:17:11;;;;;;;12.68;8.52;;;;;;;1.14;100.00;101963.56;5072115;28;20048;-81
2023/01/23 05:19:37;;;;;;;13.02;8.52;;;;;;;1.39;100.00;102017.03;5065311;28;20052;-80
2023/01/23 05:22:04;;;;;;;13.65;8.77;;;;;;;1.36;100.00;102009.16;5070566;28;20469;-80
2023/01/23 05:24:30;;;;;;;14.00;8.80;;;;;;;1.37;100.00;102005.69;5086039;28;20135;-80
2023/01/23 05:26:57;;;;;;;11.98;7.70;;;;;;;0.83;100.00;101912.59;5074556;28;20053;-80
2023/01/23 05:29:24;;;;;;;12.75;8.05;;;;;;;1.30;100.00;101998.59;5088736;28;20052;-78
2023/01/23 05:31:50;;;;;;;12.68;8.30;;;;;;;0.57;100.00;101880.00;5059678;28;20093;-78
2023/01/23 05:34:17;;;;;;;14.05;8.18;;;;;;;1.48;100.00;102018.91;5082976;28;20044;-79
2023/01/23 05:36:43;;;;;;;12.95;8.30;;;;;;;1.51;100.00;102027.69;5069754;28;20052;-79
2023/01/23 05:39:10;;;;;;;14.18;8.57;;;;;;;0.95;100.00;101936.28;5068069;28;20075;-79
2023/01/23 05:41:36;;;;;;;12.40;7.60;;;;;;;1.26;100.00;101994.22;5083668;28;20051;-79
2023/01/23 05:44:04;;;;;;;12.07;8.05;;;;;;;1.59;100.00;102028.66;5090341;28;20059;-79
2023/01/23 05:46:30;;;;;;;12.30;8.00;;;;;;;1.52;100.00;102019.00;5071436;28;20067;-81
2023/01/23 05:48:57;;;;;;;12.23;8.02;;;;;;;1.58;100.00;102029.50;5082553;28;20083;-78
2023/01/23 05:51:30;;;;;;;13.30;8.07;;;;;;;1.40;100.00;101995.31;5068691;28;20087;-81
2023/01/23 05:54:01;;;;;;;10.70;7.40;;;;;;;1.46;100.00;102015.41;5067300;28;20084;-80
2023/01/23 05:56:27;;;;;;;;;;;;;;;1.62;100.00;102039.16;5068852;28;20062;-80
2023/01/23 05:58:54;;;;;;;12.82;7.88;;;;;;;1.01;100.00;101946.81;5081521;28;19931;-79
2023/01/23 06:01:21;;;;;;;11.60;7.60;;;;;;;1.56;100.00;102036.47;5062435;28;20044;-81
2023/01/23 06:03:47;;;;;;;12.38;7.80;;;;;;;1.31;100.00;101995.16;5065266;28;20048;-80
2023/01/23 06:06:14;;;;;;;11.23;7.35;;;;;;;1.49;100.00;102029.38;5064513;28;20056;-81
2023/01/23 06:08:41;;;;;;;11.82;7.97;;;;;;;0.92;100.00;101931.03;5064607;28;20059;-80
2023/01/23 06:11:07;;;;;;;11.35;7.57;;;;;;;1.44;100.00;102019.72;5067678;28;20059;-80
2023/01/23 06:13:35;;;;;;;10.80;7.45;;;;;;;1.53;100.00;102048.59;5088826;28;20062;-80
2023/01/23 06:16:02;;;;;;;11.48;7.70;;;;;;;1.39;100.00;102037.94;5075598;28;20056;-81
2023/01/23 06:18:28;;;;;;;13.18;7.75;;;;;;;1.48;100.00;102061.56;5078624;28;20052;-80
2023/01/23 06:20:59;;;;;;;11.63;8.18;;;;;;;1.48;100.00;102069.38;5068480;28;20421;-80
2023/01/23 06:23:27;;;;;;;11.77;7.88;;;;;;;1.42;100.00;102045.78;5079313;28;20475;-82
2023/01/23 06:25:57;;;;;;;12.85;7.70;;;;;;;1.42;100.00;102061.44;5073505;28;20398;-81
2023/01/23 06:28:23;;;;;;;11.88;7.97;;;;;;;1.51;100.00;102081.63;5076036;28;20065;-81
2023/01/23 06:30:50;;;;;;;11.60;7.30;;;;;;;0.65;100.00;101943.56;5065814;28;20041;-80
2023/01/23 06:33:17;;;;;;;10.60;7.50;;;;;;;0.74;100.00;101948.97;5067660;28;20053;-79
2023/01/23 06:35:43;;;;;;;11.43;7.68;;;;;;;1.17;100.00;102026.22;5068338;28;20044;-81
2023/01/23 06:38:10;;;;;;;11.23;8.30;;;;;;;1.13;100.00;102042.69;5069260;28;20055;-80
2023/01/23 06:40:36;;;;;;;11.95;7.75;;;;;;;1.51;100.00;102094.69;5067680;28;20048;-81
2023/01/23 06:43:03;;;;;;;11.82;7.60;;;;;;;1.53;100.00;102093.84;5078020;28;20060;-82
2023/01/23 06:45:30;;;;;;;11.38;7.60;;;;;;;0.83;100.00;101967.38;5067939;28;20044;-81
2023/01/23 06:47:56;;;;;;;12.15;7.88;;;;;;;1.44;100.00;102075.41;5076752;28;20053;-81
2023/01/23 06:50:23;;;;;;;11.75;8.00;;;;;;;1.25;100.00;102047.25;5047453;28;20136;-79
2023/01/23 06:52:50;;;;;;;11.18;7.22;;;;;;;1.11;100.00;102025.22;5069220;28;20048;-79
2023/01/23 06:55:16;;;;;;;12.45;8.50;;;;;;;1.55;100.00;102096.50;5072936;28;20052;-80
2023/01/23 06:57:43;;;;;;;11.30;8.13;;;;;;;1.57;100.00;102090.44;5073099;28;20045;-80
2023/01/23 07:00:10;;;;;;;16.75;8.13;;;;;;;1.00;100.00;102001.56;5064123;28;20045;-80
2023/01/23 07:02:37;;;;;;;12.68;8.50;;;;;;;1.36;100.00;102064.84;5082496;28;20079;-79
2023/01/23 07:05:04;;;;;;;11.52;8.13;;;;;;;1.39;100.00;102072.75;5054872;28;20509;-81
2023/01/23 07:07:31;;;;;;;12.23;8.30;;;;;;;1.10;100.00;102036.56;5073008;28;20059;-79
2023/01/23 07:09:58;;;;;;;12.63;8.02;;;;;;;1.32;100.00;102075.19;5071813;28;20139;-80
2023/01/23 07:12:24;;;;;;;11.95;8.10;;;;;;;0.43;100.00;101925.81;5061820;28;20060;-79
2023/01/23 07:14:51;;;;;;;12.10;7.90;;;;;;;0.98;100.00;102018.94;5073265;28;20135;-80
2023/01/23 07:17:17;;;;;;;11.43;7.90;;;;;;;1.34;100.00;102091.78;5078079;28;20044;-82
2023/01/23 07:19:44;;;;;;;12.85;8.23;;;;;;;1.18;100.00;102058.44;5072434;28;20056;-81
2023/01/23 07:22:10;;;;;;;10.80;7.88;;;;;;;0.49;100.00;101946.75;5067438;28;20045;-80
2023/01/23 07:24:37;;;;;;;13.68;8.18;;;;;;;0.82;100.00;102007.34;5059368;28;20424;-79
2023/01/23 07:27:04;;;;;;;13.93;8.45;;;;;;;0.71;100.00;102006.25;5062591;28;20053;-80
2023/01/23 07:29:30;;;;;;;11.77;7.85;;;;;;;1.08;100.00;102087.81;5080577;28;20048;-79
2023/01/23 07:31:58;;;;;;;12.10;8.20;;;;;;;0.38;100.00;101970.00;5071978;28;20048;-83
2023/01/23 07:34:24;;;;;;;12.25;8.60;;;;;;;1.17;100.00;102111.47;5068185;28;20506;-80
2023/01/23 07:36:51;;;;;;;11.40;7.72;;;;;;;0.85;100.00;102077.81;5066045;28;20064;-80
2023/01/23 07:39:17;;;;;;;11.27;7.45;;;;;;;0.22;100.00;101960.13;5068372;28;20044;-82
2023/01/23 07:41:44;;;;;;;12.63;7.93;;;;;;;1.17;100.00;102130.59;5068851;28;20051;-81
2023/01/23 07:44:16;;;;;;;11.05;7.95;;;;;;;0.99;100.00;102105.03;5059029;28;20105;-80
2023/01/23 07:46:44;;;;;;;12.93;7.82;;;;;;;1.08;100.00;102116.50;5076016;28;20091;-80
2023/01/23 07:49:11;;;;;;;11.55;8.27;;;;;;;0.87;100.00;102080.44;5084066;28;20062;-81
2023/01/23 07:51:38;;;;;;;11.15;8.02;;;;;;;0.98;100.00;102105.00;5075891;28;20050;-81
2023/01/23 07:54:06;;;;;;;15.02;8.15;;;;;;;1.02;100.00;102110.31;5067785;28;20048;-80
2023/01/23 07:56:33;;;;;;;11.55;7.88;;;;;;;1.18;100.00;102147.13;5076968;28;20051;-80
2023/01/23 07:58:59;;;;;;;13.07;7.78;;;;;;;0.23;100.00;101986.22;5079285;28;20139;-80
2023/01/23 08:01:27;;;;;;;11.63;8.30;;;;;;;0.15;100.00;101958.25;5071710;28;20044;-81
2023/01/23 08:03:54;;;;;;;12.05;7.75;;;;;;;1.05;100.00;102126.03;5075418;28;20059;-80
2023/01/23 08:06:22;;;;;;;9.98;7.18;;;;;;;1.19;100.00;102147.16;5073524;28;20055;-79
2023/01/23 08:08:49;;;;;;;12.07;8.20;;;;;;;0.83;100.00;102071.69;5080749;28;20139;-79
2023/01/23 08:11:16;;;;;;;11.63;7.93;;;;;;;1.26;100.00;102145.56;5088115;28;20044;-79
2023/01/23 08:13:42;;;;;;;12.48;7.63;;;;;;;0.82;100.00;102074.25;5076257;28;20053;-81
2023/01/23 08:16:09;;;;;;;11.02;7.63;;;;;;;1.55;100.00;102182.66;5077368;28;20056;-81
2023/01/23 08:18:38;;;;;;;11.13;7.90;;;;;;;1.49;100.00;102170.34;5077975;28;20140;-80
2023/01/23 08:21:05;;;;;;;11.10;7.68;;;;;;;1.36;100.00;102132.72;5073856;28;20068;-80
2023/01/23 08:23:33;;;;;;;11.80;8.02;;;;;;;1.67;100.00;102194.19;5081475;28;20058;-81
2023/01/23 08:26:03;;;;;;;10.18;7.40;;;;;;;1.19;100.00;102115.84;5071400;28;20057;-79
2023/01/23 08:28:30;;;;;;;10.00;6.60;;;;;;;1.32;100.00;102148.28;5081645;28;20044;-80
2023/01/23 08:31:06;;;;;;;11.57;7.82;;;;;;;1.56;100.00;102190.50;5078308;28;20124;-81
2023/01/23 08:33:33;;;;;;;13.75;8.80;;;;;;;1.31;100.00;102143.91;5087968;28;20056;-79
2023/01/23 08:36:02;;;;;;;12.77;9.00;;;;;;;1.47;100.00;102164.22;5075309;28;20469;-79
2023/01/23 08:38:29;;;;;;;12.63;8.52;;;;;;;1.73;100.00;102204.72;5075267;28;20049;-81
2023/01/23 08:40:59;;;;;;;11.13;7.90;;;;;;;1.41;100.00;102127.59;5081884;28;20036;-80
2023/01/23 08:43:25;;;;;;;11.63;8.15;;;;;;;1.14;100.00;102082.69;5089077;28;20108;-81
2023/01/23 08:45:54;;;;;;;11.00;8.07;;;;;;;1.86;100.00;102205.84;5083880;28;20059;-80
2023/01/23 08:48:23;;;;;;;12.30;7.85;;;;;;;1.84;100.00;102199.72;5084205;28;20071;-78
2023/01/23 08:50:51;;;;;;;11.40;7.95;;;;;;;1.80;100.00;102189.19;5089912;28;20056;-80
2023/01/23 08:53:17;;;;;;;10.75;7.97;;;;;;;1.50;100.00;102130.34;5081441;28;20052;-80
2023/01/23 08:55:44;;;;;;;12.23;8.55;;;;;;;1.59;100.00;102134.84;5081784;28;20052;-80
2023/01/23 08:58:11;;;;;;;12.93;8.90;;;;;;;1.98;100.00;102203.44;5072412;28;20050;-81
2023/01/23 09:00:39;;;;;;;14.10;8.38;;;;;;;1.61;100.00;102136.63;5095239;28;20519;-79
2023/01/23 09:03:06;;;;;;;12.80;8.45;;;;;;;1.64;100.00;102114.91;5076432;28;20106;-80
2023/01/23 09:05:34;;;;;;;9.70;7.32;;;;;;;2.18;100.00;102205.50;5068602;28;20048;-81
2023/01/23 09:08:01;;;;;;;12.73;8.18;;;;;;;2.22;100.00;102202.94;5073409;28;20552;-79
2023/01/23 09:10:27;;;;;;;12.07;8.15;;;;;;;2.09;100.00;102186.19;5074766;28;20049;-79
2023/01/23 09:12:54;;;;;;;10.93;7.88;;;;;;;1.73;100.00;102123.75;5064834;28;20049;-80
2023/01/23 09:15:23;;;;;;;10.30;7.50;;;;;;;2.10;100.00;102192.31;5066606;28;20053;-81
2023/01/23 09:17:50;;;;;;;11.15;8.15;;;;;;;2.08;100.00;102207.06;5073663;28;20055;-80
2023/01/23 09:20:17;;;;;;;15.30;9.38;;;;;;;1.65;100.00;102132.34;5065732;28;20123;-79
2023/01/23 09:22:44;;;;;;;11.95;8.00;;;;;;;1.72;100.00;102137.72;5072757;28;20080;-80
2023/01/23 09:25:11;;;;;;;11.43;8.07;;;;;;;2.24;100.00;102216.94;5081424;28;20163;-79
2023/01/23 09:27:38;;;;;;;11.57;7.85;;;;;;;1.98;100.00;102160.75;5072255;28;20053;-80
2023/01/23 09:30:05;;;;;;;12.38;8.90;;;;;;;1.88;100.00;102144.06;5083178;28;20079;-78
2023/01/23 09:32:32;;;;;;;13.73;8.23;;;;;;;2.11;100.00;102199.28;5076197;28;20045;-79
2023/01/23 09:34:58;;;;;;;12.35;7.78;;;;;;;1.91;100.00;102145.81;5086245;28;20059;-78
2023/01/23 09:37:29;;;;;;;13.23;9.20;;;;;;;2.13;100.00;102171.47;5046761;28;20066;-79
2023/01/23 09:39:55;;;;;;;13.88;8.73;;;;;;;1.75;100.00;102097.69;5069952;28;20082;-79
2023/01/23 09:42:31;;;;;;;10.65;7.47;;;;;;;2.32;100.00;102183.06;5065695;28;20405;-78
2023/01/23 09:45:04;;;;;;;10.77;7.93;;;;;;;1.74;100.00;102088.09;5082755;28;20052;-79
2023/01/23 09:47:41;;;;;;;13.20;9.02;;;;;;;2.27;100.00;102161.22;5077623;28;20072;-79
2023/01/23 09:50:24;;;;;;;12.00;8.65;;;;;;;2.62;100.00;102199.22;5073817;28;20120;-79
2023/01/23 09:52:58;;;;;;;11.88;7.60;;;;;;;2.59;100.00;102183.47;5048431;28;20051;-79
2023/01/23 09:55:40;;;;;;;12.15;8.70;;;;;;;2.34;100.00;102135.19;5082239;28;20060;-78
2023/01/23 09:58:21;;;;;;;12.27;8.55;;;;;;;2.42;100.00;102150.97;5071995;28;20049;-81
2023/01/23 10:00:49;;;;;;;;;;;;;;;2.79;100.00;102202.06;5068674;28;20051;-81
2023/01/23 10:03:16;;;;;;;12.90;8.85;;;;;;;2.47;100.00;102144.97;5065597;28;19995;-80
2023/01/23 10:06:03;;;;;;;14.88;9.13;;;;;;;2.83;100.00;102197.75;5073097;28;20071;-80
2023/01/23 10:08:57;;;;;;;14.73;9.38;;;;;;;2.67;100.00;102178.38;5075904;28;20048;-80
2023/01/23 10:11:43;;;;;;;14.82;9.48;;;;;;;2.79;100.00;102186.38;5063420;28;20056;-78
2023/01/23 10:14:44;;;;;;;12.65;8.93;;;;;;;2.93;100.00;102200.50;5080529;28;20362;-80
2023/01/23 10:17:38;;;;;;;12.05;8.73;;;;;;;3.01;100.00;102203.22;5066910;28;20048;-79
2023/01/23 10:20:29;;;;;;;12.75;8.80;;;;;;;2.92;100.00;102190.91;5070445;28;20148;-80
2023/01/23 10:23:11;;;;;;;13.00;8.45;;;;;;;3.07;100.00;102200.69;5071890;28;20049;-80
2023/01/23 10:25:40;;;;;;;11.98;9.02;;;;;;;2.98;100.00;102175.28;5084733;28;20051;-80
2023/01/23 10:28:31;;;;;;;11.10;7.65;;;;;;;3.14;100.00;102200.78;5080985;28;20066;-81
2023/01/23 10:31:02;;;;;;;13.77;9.15;;;;;;;2.87;100.00;102157.69;5072420;28;20052;-79
2023/01/23 10:33:38;;;;;;;13.30;8.63;;;;;;;3.07;100.00;102212.03;5080137;28;20102;-80
2023/01/23 10:36:16;;;;;;;12.20;8.15;;;;;;;2.67;100.00;102140.00;5083515;28;20051;-79
2023/01/23 10:39:12;;;;;;;13.05;8.57;;;;;;;2.87;100.00;102174.25;5073349;28;20060;-82
2023/01/23 10:41:38;;;;;;;13.25;8.93;;;;;;;2.74;100.00;102162.75;5069030;28;20040;-80
2023/01/23 10:44:15;;;;;;;12.02;8.32;;;;;;;2.72;100.00;102143.53;5066181;28;20057;-80
2023/01/23 10:46:54;;;;;;;10.95;8.00;;;;;;;2.67;100.00;102145.25;5071122;28;20048;-80
2023/01/23 10:49:40;;;;;;;11.73;8.43;;;;;;;2.57;100.00;102109.34;5059643;28;20139;-80
2023/01/23 10:52:32;;;;;;;10.98;8.18;;;;;;;2.44;100.00;102084.78;5074832;28;20063;-81
2023/01/23 10:54:59;;;;;;;12.52;8.38;;;;;;;2.72;100.00;102111.28;5081497;28;20470;-81
2023/01/23 10:57:30;;;;;;;12.80;8.73;;;;;;;2.27;100.00;102044.47;5072395;28;20151;-80
2023/01/23 11:00:21;;;;;;;11.57;8.07;;;;;;;2.34;100.00;102046.31;5051793;28;20056;-79
2023/01/23 11:02:48;;;;;;;12.82;8.65;;;;;;;3.30;100.00;102209.72;5060337;28;20136;-80
2023/01/23 11:05:35;;;;;;;11.57;8.38;;;;;;;3.32;100.00;102200.09;5071849;28;20054;-80
2023/01/23 11:08:37;;;;;;;15.32;9.43;;;;;;;3.37;100.00;102193.19;5058239;28;20067;-80
2023/01/23 11:11:31;;;;;;;16.05;8.90;;;;;;;3.51;100.00;102185.47;5072676;28;20471;-80
2023/01/23 11:14:12;;;;;;;11.90;8.35;;;;;;;3.54;100.00;102177.66;5070758;28;20060;-80
2023/01/23 11:16:39;;;;;;;17.88;11.23;;;;;;;3.64;100.00;102210.94;5072432;28;20052;-79
2023/01/23 11:19:06;;;;;;;10.30;7.55;;;;;;;3.69;100.00;102175.19;5083440;28;20147;-79
2023/01/23 11:21:37;;;;;;;11.43;7.82;;;;;;;3.08;100.00;102077.69;5080979;28;20044;-79
2023/01/23 11:24:18;;;;;;;13.38;8.50;;;;;;;3.55;100.00;102155.84;5075208;28;20052;-80
2023/01/23 11:27:04;;;;;;;11.70;7.75;;;;;;;3.63;100.00;102164.63;5069485;28;20052;-80
2023/01/23 11:29:47;;;;;;;11.80;7.43;;;;;;;3.17;100.00;102090.88;5075515;28;20112;-81
2023/01/23 11:32:15;;;;;;;12.23;7.70;;;;;;;3.04;100.00;102067.16;5067290;28;20053;-80
2023/01/23 11:34:49;;;;;;;10.25;7.00;;;;;;;2.95;100.00;102056.63;5077060;28;20059;-79
2023/01/23 11:37:29;;;;;;;11.10;7.32;;;;;;;3.50;100.00;102162.78;5069964;28;20056;-79